createdAt,value
2018-09-23T00:01:42.821Z,18.87
2018-09-23T00:04:11.482Z,18.86
2018-09-23T00:06:40.217Z,18.91
2018-09-23T00:09:09.391Z,18.84
2018-09-23T00:11:38.168Z,18.79
2018-09-23T00:14:07.590Z,18.74
2018-09-23T00:16:36.277Z,18.76
2018-09-23T00:19:05.142Z,18.74
2018-09-23T00:21:33.905Z,18.71
2018-09-23T00:24:02.650Z,18.63
2018-09-23T00:26:31.458Z,18.61
2018-09-23T00:29:00.206Z,18.63
2018-09-23T00:31:28.860Z,18.64
2018-09-23T00:33:57.685Z,18.61
2018-09-23T00:36:26.457Z,18.58
2018-09-23T00:38:55.206Z,18.55
2018-09-23T00:41:23.941Z,18.53
2018-09-23T00:43:52.640Z,18.53
2018-09-23T00:46:21.519Z,18.55
2018-09-23T00:48:50.235Z,18.54
2018-09-23T00:51:18.944Z,18.57
2018-09-23T00:53:47.616Z,18.56
2018-09-23T00:56:16.440Z,18.55
2018-09-23T00:58:45.259Z,18.49
2018-09-23T01:01:14.100Z,18.43
2018-09-23T01:03:42.767Z,18.42
2018-09-23T01:06:11.484Z,18.38
2018-09-23T01:08:40.153Z,18.34
2018-09-23T01:11:08.961Z,18.28
2018-09-23T01:13:37.796Z,18.28
2018-09-23T01:16:06.558Z,18.28
2018-09-23T01:18:35.273Z,18.17
2018-09-23T01:21:04.044Z,18.13
2018-09-23T01:23:32.733Z,18.08
2018-09-23T01:26:01.452Z,18.08
2018-09-23T01:28:30.184Z,16.96
2018-09-23T01:30:58.828Z,18.05
2018-09-23T01:33:27.605Z,18.04
2018-09-23T01:35:56.344Z,18.00
2018-09-23T01:38:25.444Z,17.92
2018-09-23T01:40:54.197Z,17.87
2018-09-23T01:43:22.920Z,17.88
2018-09-23T01:45:51.764Z,17.81
2018-09-23T01:48:20.526Z,17.77
2018-09-23T01:50:49.265Z,17.70
2018-09-23T01:53:17.961Z,17.73
2018-09-23T01:55:46.728Z,17.72
2018-09-23T01:58:15.468Z,17.73
2018-09-23T02:00:44.244Z,17.75
2018-09-23T02:03:12.920Z,17.73
2018-09-23T02:05:41.595Z,17.70
2018-09-23T02:08:10.288Z,17.75
2018-09-23T02:10:38.972Z,17.79
2018-09-23T02:13:07.718Z,17.73
2018-09-23T02:15:36.490Z,17.64
2018-09-23T02:18:05.332Z,17.62
2018-09-23T02:20:34.125Z,17.50
2018-09-23T02:23:02.924Z,17.54
2018-09-23T02:25:31.715Z,17.46
2018-09-23T02:28:00.413Z,17.29
2018-09-23T02:30:29.307Z,17.16
2018-09-23T02:32:58.105Z,17.02
2018-09-23T02:35:26.851Z,16.95
2018-09-23T02:37:56.065Z,16.92
2018-09-23T02:40:24.911Z,16.92
2018-09-23T02:42:53.668Z,16.75
2018-09-23T02:45:22.501Z,16.64
2018-09-23T02:47:51.168Z,16.64
2018-09-23T02:50:19.904Z,16.64
2018-09-23T02:52:48.665Z,16.59
2018-09-23T02:55:17.356Z,16.52
2018-09-23T02:57:46.080Z,16.65
2018-09-23T03:00:14.747Z,16.82
2018-09-23T03:02:43.461Z,16.82
2018-09-23T03:05:12.253Z,16.72
2018-09-23T03:07:40.967Z,16.63
2018-09-23T03:10:09.744Z,16.67
2018-09-23T03:12:38.460Z,16.76
2018-09-23T03:15:07.206Z,16.63
2018-09-23T03:17:35.890Z,16.46
2018-09-23T03:20:04.626Z,16.49
2018-09-23T03:22:33.296Z,16.43
2018-09-23T03:25:01.993Z,16.29
2018-09-23T03:27:30.751Z,16.24
2018-09-23T03:29:59.449Z,16.25
2018-09-23T03:32:28.280Z,16.26
2018-09-23T03:34:57.047Z,16.22
2018-09-23T03:37:25.765Z,16.21
2018-09-23T03:39:54.478Z,16.35
2018-09-23T03:42:23.278Z,16.53
2018-09-23T03:44:51.979Z,16.69
2018-09-23T03:47:20.644Z,16.66
2018-09-23T03:49:49.295Z,16.67
2018-09-23T03:52:17.990Z,16.88
2018-09-23T03:54:46.682Z,17.00
2018-09-23T03:57:15.525Z,16.85
2018-09-23T03:59:44.303Z,16.69
2018-09-23T04:02:12.964Z,16.53
2018-09-23T04:04:41.689Z,16.44
2018-09-23T04:07:10.415Z,16.42
2018-09-23T04:09:39.100Z,16.49
2018-09-23T04:12:07.982Z,16.62
2018-09-23T04:14:36.778Z,16.59
2018-09-23T04:17:05.703Z,16.54
2018-09-23T04:19:34.443Z,16.41
2018-09-23T04:22:03.206Z,15.59
2018-09-23T04:24:31.878Z,16.31
2018-09-23T04:27:00.636Z,16.25
2018-09-23T04:29:29.383Z,16.08
2018-09-23T04:31:58.072Z,15.98
2018-09-23T04:34:26.890Z,15.89
2018-09-23T04:36:55.627Z,15.77
2018-09-23T04:39:24.335Z,15.76
2018-09-23T04:41:52.955Z,15.88
2018-09-23T04:44:21.677Z,15.92
2018-09-23T04:46:50.424Z,16.13
2018-09-23T04:49:19.154Z,16.28
2018-09-23T04:51:47.957Z,16.59
2018-09-23T04:54:16.733Z,16.84
2018-09-23T04:56:45.495Z,17.02
2018-09-23T04:59:14.184Z,17.00
2018-09-23T05:01:42.878Z,17.14
2018-09-23T05:04:11.568Z,17.46
2018-09-23T05:06:40.224Z,17.87
2018-09-23T05:09:10.234Z,18.24
2018-09-23T05:11:38.977Z,18.44
2018-09-23T05:14:07.875Z,18.60
2018-09-23T05:16:36.647Z,18.52
2018-09-23T05:19:05.625Z,18.75
2018-09-23T05:21:34.600Z,18.87
2018-09-23T05:24:03.332Z,18.80
2018-09-23T05:26:32.073Z,18.90
2018-09-23T05:29:00.760Z,19.13
2018-09-23T05:31:29.417Z,19.56
2018-09-23T05:33:58.033Z,19.54
2018-09-23T05:36:26.755Z,19.45
2018-09-23T05:38:55.580Z,19.63
2018-09-23T05:41:24.340Z,19.71
2018-09-23T05:43:53.092Z,19.79
2018-09-23T05:46:21.870Z,19.74
2018-09-23T05:48:50.662Z,19.95
2018-09-23T05:51:19.468Z,20.35
2018-09-23T05:53:48.234Z,20.69
2018-09-23T05:56:16.980Z,20.72
2018-09-23T05:58:45.629Z,20.36
2018-09-23T06:01:14.556Z,20.85
2018-09-23T06:03:43.211Z,21.13
2018-09-23T06:06:11.995Z,21.25
2018-09-23T06:08:40.702Z,21.35
2018-09-23T06:11:09.506Z,21.45
2018-09-23T06:13:38.347Z,21.53
2018-09-23T06:16:06.999Z,22.03
2018-09-23T06:18:35.778Z,22.01
2018-09-23T06:21:04.464Z,22.07
2018-09-23T06:23:33.256Z,22.14
2018-09-23T06:26:01.981Z,22.46
2018-09-23T06:28:30.665Z,22.43
2018-09-23T06:30:59.430Z,22.27
2018-09-23T06:33:28.128Z,22.15
2018-09-23T06:35:56.841Z,22.30
2018-09-23T06:38:25.566Z,22.37
2018-09-23T06:40:54.288Z,22.49
2018-09-23T06:43:23.238Z,22.56
2018-09-23T06:45:52.007Z,22.74
2018-09-23T06:48:20.669Z,23.05
2018-09-23T06:50:49.312Z,23.23
2018-09-23T06:53:18.073Z,23.45
2018-09-23T06:55:46.851Z,23.20
2018-09-23T06:58:15.518Z,23.82
2018-09-23T07:00:44.349Z,23.84
2018-09-23T07:03:13.053Z,23.85
2018-09-23T07:05:41.856Z,23.95
2018-09-23T07:08:10.707Z,23.65
2018-09-23T07:10:39.355Z,23.93
2018-09-23T07:13:08.037Z,23.71
2018-09-23T07:15:36.702Z,23.60
2018-09-23T07:18:05.548Z,23.98
2018-09-23T07:20:34.240Z,24.51
2018-09-23T07:23:03.016Z,24.56
2018-09-23T07:25:31.763Z,24.69
2018-09-23T07:28:00.520Z,24.77
2018-09-23T07:30:29.251Z,24.66
2018-09-23T07:32:58.008Z,24.62
2018-09-23T07:35:26.685Z,24.69
2018-09-23T07:37:55.388Z,25.12
2018-09-23T07:40:24.043Z,25.26
2018-09-23T07:42:52.826Z,25.54
2018-09-23T07:45:21.568Z,25.68
2018-09-23T07:47:50.275Z,25.57
2018-09-23T07:50:18.935Z,25.67
2018-09-23T07:52:47.600Z,25.75
2018-09-23T07:55:16.284Z,25.48
2018-09-23T07:57:45.556Z,25.48
2018-09-23T08:00:15.736Z,25.59
2018-09-23T08:02:44.432Z,25.95
2018-09-23T08:05:13.146Z,25.88
2018-09-23T08:07:41.924Z,25.92
2018-09-23T08:10:10.694Z,26.19
2018-09-23T08:12:39.444Z,25.87
2018-09-23T08:15:09.251Z,26.08
2018-09-23T08:17:38.103Z,25.90
2018-09-23T08:20:07.071Z,26.19
2018-09-23T08:22:35.691Z,25.88
2018-09-23T08:25:04.712Z,25.79
2018-09-23T08:27:33.483Z,25.89
2018-09-23T08:30:02.194Z,26.43
2018-09-23T08:32:31.072Z,26.17
2018-09-23T08:34:59.902Z,25.18
2018-09-23T08:37:28.701Z,26.27
2018-09-23T08:39:57.430Z,26.51
2018-09-23T08:42:26.024Z,26.69
2018-09-23T08:44:54.798Z,26.65
2018-09-23T08:47:23.544Z,27.05
2018-09-23T08:49:52.299Z,27.30
2018-09-23T08:52:21.309Z,27.29
2018-09-23T08:54:49.848Z,27.20
2018-09-23T08:57:18.628Z,27.03
2018-09-23T08:59:47.422Z,27.60
2018-09-23T09:02:16.117Z,28.08
2018-09-23T09:04:44.802Z,28.35
2018-09-23T09:07:13.569Z,27.87
2018-09-23T09:09:42.252Z,28.02
2018-09-23T09:12:11.107Z,28.42
2018-09-23T09:14:39.805Z,27.96
2018-09-23T09:17:08.498Z,28.37
2018-09-23T09:19:37.246Z,28.61
2018-09-23T09:22:06.063Z,28.95
2018-09-23T09:24:34.777Z,28.68
2018-09-23T09:27:03.593Z,28.93
2018-09-23T09:29:32.272Z,28.74
2018-09-23T09:32:01.081Z,28.72
2018-09-23T09:34:29.872Z,24.86
2018-09-23T09:36:58.537Z,29.42
2018-09-23T09:39:27.326Z,29.37
2018-09-23T09:41:56.011Z,28.68
2018-09-23T09:44:24.806Z,28.61
2018-09-23T09:46:53.560Z,29.26
2018-09-23T09:49:22.272Z,29.52
2018-09-23T09:51:51.035Z,29.41
2018-09-23T09:54:19.971Z,29.24
2018-09-23T09:56:48.643Z,29.21
2018-09-23T09:59:17.368Z,29.18
2018-09-23T10:01:46.134Z,29.26
2018-09-23T10:04:14.847Z,29.47
2018-09-23T10:06:43.554Z,29.84
2018-09-23T10:09:12.406Z,30.23
2018-09-23T10:11:41.646Z,29.73
2018-09-23T10:14:10.416Z,30.01
2018-09-23T10:16:39.239Z,30.45
2018-09-23T10:19:07.946Z,30.64
2018-09-23T10:21:36.753Z,30.50
2018-09-23T10:24:05.893Z,30.50
2018-09-23T10:26:34.700Z,30.11
2018-09-23T10:29:03.414Z,29.69
2018-09-23T10:31:32.258Z,30.25
2018-09-23T10:34:00.941Z,30.55
2018-09-23T10:36:37.944Z,30.60
2018-09-23T10:39:09.146Z,31.27
2018-09-23T10:41:37.948Z,31.33
2018-09-23T10:44:07.117Z,31.11
2018-09-23T10:46:36.767Z,31.53
2018-09-23T10:49:05.689Z,31.89
2018-09-23T10:51:34.418Z,31.97
2018-09-23T10:54:03.149Z,31.87
2018-09-23T10:56:31.859Z,31.94
2018-09-23T10:59:00.589Z,32.39
2018-09-23T11:01:29.309Z,32.17
2018-09-23T11:03:58.260Z,32.19
2018-09-23T11:06:27.048Z,32.24
2018-09-23T11:08:55.825Z,32.25
2018-09-23T11:11:24.614Z,32.62
2018-09-23T11:13:53.330Z,33.05
2018-09-23T11:16:22.010Z,33.28
2018-09-23T11:18:50.690Z,33.30
2018-09-23T11:21:19.442Z,33.27
2018-09-23T11:23:48.153Z,32.93
2018-09-23T11:26:16.860Z,32.78
2018-09-23T11:28:45.643Z,33.40
2018-09-23T11:31:14.387Z,33.54
2018-09-23T11:33:43.108Z,33.57
2018-09-23T11:36:11.864Z,34.00
2018-09-23T11:38:40.651Z,33.53
2018-09-23T11:41:09.451Z,33.38
2018-09-23T11:43:38.240Z,33.66
2018-09-23T11:46:07.157Z,33.65
2018-09-23T11:48:35.886Z,33.28
2018-09-23T11:51:04.595Z,33.50
2018-09-23T11:53:33.441Z,33.74
2018-09-23T11:56:12.294Z,33.81
2018-09-23T11:58:42.436Z,34.28
2018-09-23T12:01:11.226Z,33.91
2018-09-23T12:03:39.939Z,34.13
2018-09-23T12:06:08.680Z,34.08
2018-09-23T12:08:37.441Z,34.24
2018-09-23T12:11:06.320Z,34.41
2018-09-23T12:13:35.040Z,34.43
2018-09-23T12:16:03.783Z,34.37
2018-09-23T12:18:32.585Z,34.57
2018-09-23T12:21:01.387Z,34.21
2018-09-23T12:23:30.144Z,33.57
2018-09-23T12:25:58.927Z,32.62
2018-09-23T12:28:27.599Z,32.32
2018-09-23T12:30:56.437Z,32.34
2018-09-23T12:33:25.232Z,32.60
2018-09-23T12:35:55.924Z,33.16
2018-09-23T12:38:24.601Z,32.84
2018-09-23T12:40:53.383Z,32.26
2018-09-23T12:43:22.117Z,32.05
2018-09-23T12:45:50.872Z,32.15
2018-09-23T12:48:19.620Z,32.41
2018-09-23T12:50:48.386Z,32.16
2018-09-23T12:53:17.248Z,31.79
2018-09-23T12:55:46.009Z,31.73
2018-09-23T12:58:14.766Z,31.53
2018-09-23T13:00:43.560Z,31.38
2018-09-23T13:03:12.279Z,31.31
2018-09-23T13:05:41.006Z,31.26
2018-09-23T13:08:09.840Z,31.12
2018-09-23T13:10:39.074Z,31.14
2018-09-23T13:13:07.990Z,30.92
2018-09-23T13:15:37.149Z,30.58
2018-09-23T13:18:06.085Z,30.43
2018-09-23T13:20:34.834Z,30.05
2018-09-23T13:23:04.003Z,30.23
2018-09-23T13:25:32.832Z,30.46
2018-09-23T13:28:01.629Z,30.65
2018-09-23T13:30:30.571Z,30.63
2018-09-23T13:32:59.525Z,30.58
2018-09-23T13:35:28.399Z,30.33
2018-09-23T13:37:57.153Z,29.85
2018-09-23T13:40:25.982Z,29.85
2018-09-23T13:42:54.875Z,30.02
2018-09-23T13:45:23.707Z,30.05
2018-09-23T13:47:52.510Z,30.09
2018-09-23T13:50:21.484Z,30.13
2018-09-23T13:52:50.252Z,30.22
2018-09-23T13:55:19.314Z,30.19
2018-09-23T13:57:48.031Z,30.11
2018-09-23T14:00:17.787Z,29.99
2018-09-23T14:02:46.567Z,29.99
2018-09-23T14:05:28.808Z,30.11
2018-09-23T14:08:04.411Z,30.15
2018-09-23T14:10:33.212Z,29.85
2018-09-23T14:13:03.717Z,29.73
2018-09-23T14:15:35.281Z,29.66
2018-09-23T14:18:04.096Z,29.85
2018-09-23T14:20:32.821Z,29.93
2018-09-23T14:23:01.650Z,29.87
2018-09-23T14:25:30.359Z,29.84
2018-09-23T14:27:59.099Z,29.66
2018-09-23T14:30:28.642Z,29.57
2018-09-23T14:32:57.440Z,29.62
2018-09-23T14:35:26.288Z,29.70
2018-09-23T14:37:55.119Z,29.65
2018-09-23T14:40:23.822Z,29.61
2018-09-23T14:42:52.616Z,29.64
2018-09-23T14:45:21.519Z,29.53
2018-09-23T14:47:50.245Z,29.38
2018-09-23T14:50:19.134Z,29.50
2018-09-23T14:52:47.969Z,29.53
2018-09-23T14:55:16.842Z,29.38
2018-09-23T14:57:45.590Z,29.30
2018-09-23T15:00:14.449Z,29.11
2018-09-23T15:02:43.217Z,29.10
2018-09-23T15:05:12.151Z,29.00
2018-09-23T15:07:40.906Z,28.87
2018-09-23T15:10:09.750Z,28.86
2018-09-23T15:12:38.498Z,28.88
2018-09-23T15:15:07.481Z,28.86
2018-09-23T15:17:36.290Z,28.79
2018-09-23T15:20:05.377Z,28.79
2018-09-23T15:22:34.158Z,28.78
2018-09-23T15:25:02.986Z,28.70
2018-09-23T15:27:31.793Z,28.66
2018-09-23T15:30:00.518Z,28.57
2018-09-23T15:32:29.268Z,28.57
2018-09-23T15:34:58.209Z,28.47
2018-09-23T15:37:27.013Z,28.38
2018-09-23T15:39:55.777Z,28.27
2018-09-23T15:42:24.620Z,28.17
2018-09-23T15:44:53.386Z,28.12
2018-09-23T15:47:23.117Z,28.03
2018-09-23T15:49:51.942Z,27.99
2018-09-23T15:52:20.783Z,27.96
2018-09-23T15:54:49.568Z,27.87
2018-09-23T15:57:18.225Z,27.78
2018-09-23T15:59:46.944Z,27.69
2018-09-23T16:02:15.757Z,27.58
2018-09-23T16:04:44.538Z,27.52
2018-09-23T16:07:13.290Z,27.46
2018-09-23T16:09:42.225Z,27.37
2018-09-23T16:12:11.024Z,27.29
2018-09-23T16:14:39.823Z,27.19
2018-09-23T16:17:08.615Z,27.07
2018-09-23T16:19:37.318Z,26.97
2018-09-23T16:22:06.192Z,26.89
2018-09-23T16:24:34.898Z,26.79
2018-09-23T16:27:03.635Z,26.69
2018-09-23T16:29:32.344Z,26.64
2018-09-23T16:32:01.241Z,26.57
2018-09-23T16:34:29.998Z,26.50
2018-09-23T16:36:58.907Z,26.49
2018-09-23T16:39:27.770Z,26.42
2018-09-23T16:41:56.676Z,26.37
2018-09-23T16:44:25.528Z,26.34
2018-09-23T16:46:54.284Z,26.28
2018-09-23T16:49:23.147Z,26.18
2018-09-23T16:51:51.869Z,26.16
2018-09-23T16:54:20.682Z,26.16
2018-09-23T16:56:49.433Z,25.99
2018-09-23T16:59:18.152Z,25.84
2018-09-23T17:01:47.019Z,25.71
2018-09-23T17:04:15.836Z,25.65
2018-09-23T17:06:44.754Z,25.65
2018-09-23T17:09:13.450Z,25.58
2018-09-23T17:11:42.167Z,25.55
2018-09-23T17:14:11.128Z,25.50
2018-09-23T17:16:39.948Z,25.37
2018-09-23T17:19:12.253Z,25.31
2018-09-23T17:21:41.230Z,25.32
2018-09-23T17:24:10.039Z,25.32
2018-09-23T17:26:39.197Z,25.30
2018-09-23T17:29:07.961Z,25.27
2018-09-23T17:31:37.057Z,25.18
2018-09-23T17:34:06.293Z,25.08
2018-09-23T17:36:37.240Z,24.98
2018-09-23T17:39:09.019Z,24.88
2018-09-23T17:41:38.039Z,24.68
2018-09-23T17:44:06.985Z,24.56
2018-09-23T17:46:36.147Z,24.53
2018-09-23T17:49:04.978Z,24.54
2018-09-23T17:51:33.804Z,24.55
2018-09-23T17:54:02.744Z,24.66
2018-09-23T17:56:31.524Z,24.58
2018-09-23T17:59:00.485Z,24.34
2018-09-23T18:01:29.214Z,24.10
2018-09-23T18:03:58.192Z,23.89
2018-09-23T18:06:26.969Z,23.81
2018-09-23T18:08:55.848Z,23.79
2018-09-23T18:11:24.649Z,23.79
2018-09-23T18:13:53.388Z,23.82
2018-09-23T18:16:22.220Z,23.90
2018-09-23T18:18:51.007Z,24.05
2018-09-23T18:21:19.852Z,24.08
2018-09-23T18:23:48.681Z,24.02
2018-09-23T18:26:17.465Z,23.92
2018-09-23T18:28:46.309Z,23.82
2018-09-23T18:31:15.161Z,23.76
2018-09-23T18:33:44.048Z,23.67
2018-09-23T18:36:12.865Z,22.21
2018-09-23T18:38:41.596Z,23.50
2018-09-23T18:41:10.347Z,23.40
2018-09-23T18:43:39.100Z,23.32
2018-09-23T18:46:07.889Z,23.24
2018-09-23T18:48:36.690Z,23.17
2018-09-23T18:51:05.474Z,23.17
2018-09-23T18:53:34.350Z,23.13
2018-09-23T18:56:03.231Z,23.08
2018-09-23T18:58:32.045Z,23.05
2018-09-23T19:01:00.920Z,22.70
2018-09-23T19:03:29.807Z,22.98
2018-09-23T19:05:58.651Z,22.93
2018-09-23T19:08:27.533Z,22.84
2018-09-23T19:10:56.445Z,22.76
2018-09-23T19:13:30.201Z,22.56
2018-09-23T19:16:04.317Z,22.36
2018-09-23T19:18:33.082Z,22.33
2018-09-23T19:21:05.564Z,22.31
2018-09-23T19:23:34.455Z,22.19
2018-09-23T19:26:03.156Z,22.18
2018-09-23T19:28:31.967Z,22.25
2018-09-23T19:31:00.669Z,22.24
2018-09-23T19:33:29.567Z,22.29
2018-09-23T19:35:58.388Z,22.22
2018-09-23T19:38:27.289Z,22.05
2018-09-23T19:40:56.083Z,21.99
2018-09-23T19:43:25.286Z,21.99
2018-09-23T19:45:54.076Z,21.92
2018-09-23T19:48:22.956Z,21.90
2018-09-23T19:50:51.738Z,21.89
2018-09-23T19:53:20.481Z,21.85
2018-09-23T19:55:49.423Z,21.85
2018-09-23T19:58:18.319Z,21.88
2018-09-23T20:00:47.446Z,21.84
2018-09-23T20:03:16.577Z,21.69
2018-09-23T20:05:45.380Z,21.42
2018-09-23T20:08:15.031Z,21.42
2018-09-23T20:10:44.002Z,21.54
2018-09-23T20:13:12.701Z,21.47
2018-09-23T20:15:41.611Z,21.56
2018-09-23T20:18:10.540Z,21.61
2018-09-23T20:20:39.228Z,21.52
2018-09-23T20:23:08.051Z,21.42
2018-09-23T20:25:37.411Z,21.31
2018-09-23T20:28:06.377Z,21.26
2018-09-23T20:30:35.165Z,21.26
2018-09-23T20:33:03.888Z,21.19
2018-09-23T20:35:32.745Z,21.06
2018-09-23T20:38:01.605Z,20.74
2018-09-23T20:40:32.148Z,20.72
2018-09-23T20:43:00.979Z,20.71
2018-09-23T20:45:29.905Z,20.69
2018-09-23T20:47:58.732Z,20.59
2018-09-23T20:50:27.589Z,20.64
2018-09-23T20:52:56.454Z,20.40
2018-09-23T20:55:25.126Z,20.33
2018-09-23T20:57:53.899Z,20.45
2018-09-23T21:00:22.847Z,20.40
2018-09-23T21:02:51.733Z,20.19
2018-09-23T21:05:20.695Z,19.99
2018-09-23T21:07:49.536Z,19.87
2018-09-23T21:10:18.401Z,19.96
2018-09-23T21:12:47.310Z,19.95
2018-09-23T21:15:16.153Z,19.85
2018-09-23T21:17:45.002Z,19.81
2018-09-23T21:20:13.868Z,19.78
2018-09-23T21:22:42.742Z,19.70
2018-09-23T21:25:11.467Z,19.66
2018-09-23T21:27:40.370Z,19.77
2018-09-23T21:30:09.198Z,19.82
2018-09-23T21:32:37.909Z,19.87
2018-09-23T21:35:06.601Z,19.94
2018-09-23T21:37:35.349Z,19.92
2018-09-23T21:40:04.216Z,20.07
2018-09-23T21:42:32.968Z,20.15
2018-09-23T21:45:01.709Z,20.06
2018-09-23T21:47:30.450Z,20.00
2018-09-23T21:49:59.229Z,20.07
2018-09-23T21:52:27.957Z,20.23
2018-09-23T21:54:57.167Z,20.29
2018-09-23T21:57:26.146Z,20.24
2018-09-23T21:59:55.009Z,20.45
2018-09-23T22:02:23.825Z,20.66
2018-09-23T22:04:52.592Z,20.60
2018-09-23T22:07:21.486Z,20.46
2018-09-23T22:09:50.330Z,20.38
2018-09-23T22:12:19.019Z,20.09
2018-09-23T22:14:47.754Z,20.04
2018-09-23T22:17:16.463Z,20.13
2018-09-23T22:19:45.214Z,20.15
2018-09-23T22:22:14.050Z,19.98
2018-09-23T22:24:42.971Z,20.02
2018-09-23T22:27:11.745Z,19.90
2018-09-23T22:29:40.563Z,19.73
2018-09-23T22:32:09.342Z,19.39
2018-09-23T22:34:38.199Z,19.46
2018-09-23T22:37:06.892Z,19.51
2018-09-23T22:39:35.749Z,19.40
2018-09-23T22:42:04.505Z,19.48
2018-09-23T22:44:33.313Z,19.63
2018-09-23T22:47:02.106Z,19.42
2018-09-23T22:49:30.901Z,19.53
2018-09-23T22:51:59.620Z,19.69
2018-09-23T22:54:28.500Z,19.66
2018-09-23T22:56:57.305Z,19.61
2018-09-23T22:59:26.091Z,19.67
2018-09-23T23:01:54.848Z,19.79
2018-09-23T23:04:23.631Z,19.77
2018-09-23T23:06:52.381Z,19.58
2018-09-23T23:09:24.315Z,19.33
2018-09-23T23:11:52.995Z,19.44
2018-09-23T23:14:21.761Z,19.48
2018-09-23T23:16:50.620Z,19.38
2018-09-23T23:19:19.525Z,19.25
2018-09-23T23:21:48.291Z,19.24
2018-09-23T23:24:16.955Z,19.28
2018-09-23T23:26:45.704Z,19.18
2018-09-23T23:29:14.459Z,19.05
2018-09-23T23:31:43.349Z,18.79
2018-09-23T23:34:12.126Z,18.72
2018-09-23T23:36:40.961Z,18.47
2018-09-23T23:39:11.068Z,18.56
2018-09-23T23:41:40.213Z,18.56
2018-09-23T23:44:09.183Z,18.61
2018-09-23T23:46:38.257Z,18.24
2018-09-23T23:49:07.749Z,18.37
2018-09-23T23:51:36.639Z,18.23
2018-09-23T23:54:06.285Z,18.32
2018-09-23T23:56:35.045Z,18.40
2018-09-23T23:59:03.923Z,18.48
